Terminal Aerodrome Forecast
Issued by NWS Huntsville, AL

Home | Current Version | Previous Version | Text Only | Print | Product List | Glossary On
Versions: 1 2 3 4 5 6 7 8 9 10 11 12 13 14 15 16 17 18 19 20 21 22 23 24 25 26 27 28
000
FTUS44 KHUN 191157 CCA
TAFMSL
TAF COR
KMSL 191157Z 1912/2012 00000KT P6SM SCT090
      TEMPO 1912/1913 1SM BR
     FM191400 12004KT P6SM SKC
     FM191700 12006KT P6SM VCTS SCT040CB
     FM200500 00000KT P6SM SCT025=

USA.gov is the U.S. government's official web portal to all federal, state and local government web resources and services.